Nearby METAR Reports

   
YSSY - Sydney
Updated: Jan 17 2019 5:00 pm
Clear  
Clear  
   Wind: NE 31.5 km/h
Wind: NE 31.5 km/h
Temperature: 31°C
Heat Index: 34°C
Dew Point: 21°C
Humidity: 55%
Barometer: 1008 hPa
Visibility: More than 10 km
Cloud details: Clear
YSSY 170400Z 05017KT CAVOK 31/21 Q1008 NOSIG
YBBN - Brisbane
Updated: Jan 17 2019 5:00 pm
Clear  
Clear  
   Wind: NE 22.2 km/h
Wind: NE 22.2 km/h
Temperature: 29°C
Heat Index: 29°C
Dew Point: 15°C
Humidity: 43%
Barometer: 1013 hPa
Visibility: More than 10 km
Cloud details: Clear
YBBN 170400Z 05012KT CAVOK 29/15 Q1013
YSNF - Norfolk Isl
Updated: Jan 17 2019 5:00 pm
Partly Cloudy  
Partly Cloudy  
   Wind: SSE 24.1 km/h
Wind: SSE 24.1 km/h
Temperature: 23°C
Dew Point: 14°C
Humidity: 57%
Barometer: 1015 hPa
Clouds: Partly Cloudy
Visibility: More than 10 km
Cloud details: Partly Cloudy 3200 ft
YSNF 170400Z AUTO 16013KT 9999 // SCT032 23/14 Q1015
NZCH - Christchurch
Updated: Jan 17 2019 5:00 pm
Clear  
Clear  
   Wind: ENE 16.7 km/h
Wind: ENE 16.7 km/h
Temperature: 21°C
Dew Point: 14°C
Humidity: 64%
Barometer: 1005 hPa
Clouds: Clear
Visibility: More than 10 km
Cloud details: Clear
NZCH 170400Z AUTO 07009KT 9999 NCD 21/14 Q1005 NOSIG
NZAA - Auckland
Updated: Jan 17 2019 5:00 pm
Mostly Cloudy  
Mostly Cloudy  
   Wind: SW 31.5 km/h
Wind: SW 31.5 km/h
Temperature: 22°C
Dew Point: 16°C
Humidity: 69%
Barometer: 1009 hPa
Clouds: Mostly Cloudy
Visibility: More than 10 km
Cloud details: Mostly Cloudy 2600 ft
NZAA 170400Z AUTO 23017KT 9999 BKN026/// 22/16 Q1009 NOSIG
NZWN - Wellington
Updated: Jan 17 2019 5:00 pm
Clear  
Clear  
   Wind: North 24.1 km/h
Wind: North 24.1 km/h
Temperature: 24°C
Dew Point: 14°C
Humidity: 54%
Barometer: 1006 hPa
Clouds: Clear
Visibility: More than 10 km
Cloud details: Clear
NZWN 170400Z AUTO 36013KT 9999 NCD 24/14 Q1006 NOSIG

Script developed by  Saratoga-weather.org Adapted for the template by  Weerstation Leuven

Equipment we use:

Weather-station
Davis VP2

Weather-program
Meteobridge

Weather-server
Home-built

Provider
WebhostingNZ

Davis VP2

Meteobridge

Home-built

WebhostingNZ